sensor_id;sensor_type;location;lat;lon;timestamp;pressure;altitude;pressure_sealevel;temperature;humidity
72570;BME280;60594;50.204;8.844;2023-03-26T00:01:34;99328.44;;;7.79;88.47
72570;BME280;60594;50.204;8.844;2023-03-26T00:04:05;99328.81;;;7.74;88.74
72570;BME280;60594;50.204;8.844;2023-03-26T00:06:35;99334.97;;;7.75;88.68
72570;BME280;60594;50.204;8.844;2023-03-26T00:09:06;99335.22;;;7.72;89.06
72570;BME280;60594;50.204;8.844;2023-03-26T00:11:33;99323.19;;;7.68;89.38
72570;BME280;60594;50.204;8.844;2023-03-26T00:14:00;99333.44;;;7.72;89.18
72570;BME280;60594;50.204;8.844;2023-03-26T00:16:30;99332.47;;;7.62;89.37
72570;BME280;60594;50.204;8.844;2023-03-26T00:18:57;99342.34;;;7.71;89.30
72570;BME280;60594;50.204;8.844;2023-03-26T00:21:26;99336.53;;;7.77;88.90
72570;BME280;60594;50.204;8.844;2023-03-26T00:23:55;99339.09;;;7.68;89.31
72570;BME280;60594;50.204;8.844;2023-03-26T00:26:23;99322.25;;;7.58;89.68
72570;BME280;60594;50.204;8.844;2023-03-26T00:28:50;99332.94;;;7.67;89.79
72570;BME280;60594;50.204;8.844;2023-03-26T00:31:17;99334.00;;;7.76;89.61
72570;BME280;60594;50.204;8.844;2023-03-26T00:33:44;99326.16;;;7.74;89.27
72570;BME280;60594;50.204;8.844;2023-03-26T00:36:15;99314.13;;;7.70;89.33
72570;BME280;60594;50.204;8.844;2023-03-26T00:38:43;99322.56;;;7.75;89.15
72570;BME280;60594;50.204;8.844;2023-03-26T00:41:12;99329.78;;;7.73;89.48
72570;BME280;60594;50.204;8.844;2023-03-26T00:43:54;99330.66;;;7.74;89.38
72570;BME280;60594;50.204;8.844;2023-03-26T00:46:23;99328.56;;;7.77;89.11
72570;BME280;60594;50.204;8.844;2023-03-26T00:48:50;99328.81;;;7.74;89.23
72570;BME280;60594;50.204;8.844;2023-03-26T00:51:18;99329.38;;;7.89;88.24
72570;BME280;60594;50.204;8.844;2023-03-26T00:53:47;99329.44;;;7.78;88.70
72570;BME280;60594;50.204;8.844;2023-03-26T00:56:14;99325.66;;;7.80;88.76
72570;BME280;60594;50.204;8.844;2023-03-26T00:58:41;99317.97;;;7.77;88.89
72570;BME280;60594;50.204;8.844;2023-03-26T01:01:11;99313.44;;;7.68;89.18
72570;BME280;60594;50.204;8.844;2023-03-26T01:03:42;99315.22;;;7.68;89.38
72570;BME280;60594;50.204;8.844;2023-03-26T01:06:11;99315.09;;;7.69;89.41
72570;BME280;60594;50.204;8.844;2023-03-26T01:08:44;99301.66;;;7.61;89.72
72570;BME280;60594;50.204;8.844;2023-03-26T01:11:16;99302.81;;;7.68;89.73
72570;BME280;60594;50.204;8.844;2023-03-26T01:13:46;99298.94;;;7.72;89.28
72570;BME280;60594;50.204;8.844;2023-03-26T01:16:20;99303.28;;;7.73;89.47
72570;BME280;60594;50.204;8.844;2023-03-26T01:18:48;99297.44;;;7.59;89.94
72570;BME280;60594;50.204;8.844;2023-03-26T01:21:19;99300.47;;;7.54;90.12
72570;BME280;60594;50.204;8.844;2023-03-26T01:23:55;99303.13;;;7.54;89.95
72570;BME280;60594;50.204;8.844;2023-03-26T01:29:43;99311.75;;;7.56;89.82
72570;BME280;60594;50.204;8.844;2023-03-26T01:35:20;99298.75;;;7.64;89.70
72570;BME280;60594;50.204;8.844;2023-03-26T01:40:53;99296.47;;;7.60;89.52
72570;BME280;60594;50.204;8.844;2023-03-26T01:43:38;99295.16;;;7.54;89.57
72570;BME280;60594;50.204;8.844;2023-03-26T01:46:09;99293.94;;;7.58;89.48
72570;BME280;60594;50.204;8.844;2023-03-26T01:48:39;99284.88;;;7.61;89.73
72570;BME280;60594;50.204;8.844;2023-03-26T01:51:07;99286.47;;;7.52;89.74
72570;BME280;60594;50.204;8.844;2023-03-26T01:53:40;99274.69;;;7.45;89.61
72570;BME280;60594;50.204;8.844;2023-03-26T01:56:12;99278.13;;;7.36;90.48
72570;BME280;60594;50.204;8.844;2023-03-26T01:58:58;99267.38;;;7.38;90.20
72570;BME280;60594;50.204;8.844;2023-03-26T02:02:09;99271.09;;;7.46;90.35
72570;BME280;60594;50.204;8.844;2023-03-26T02:05:00;99268.44;;;7.46;90.22
72570;BME280;60594;50.204;8.844;2023-03-26T02:07:42;99272.78;;;7.47;90.32
72570;BME280;60594;50.204;8.844;2023-03-26T02:10:14;99259.53;;;7.47;90.22
72570;BME280;60594;50.204;8.844;2023-03-26T02:12:43;99252.13;;;7.51;89.98
72570;BME280;60594;50.204;8.844;2023-03-26T02:15:11;99247.00;;;7.49;89.72
72570;BME280;60594;50.204;8.844;2023-03-26T02:17:38;99247.56;;;7.53;89.88
72570;BME280;60594;50.204;8.844;2023-03-26T02:20:09;99248.91;;;7.47;90.42
72570;BME280;60594;50.204;8.844;2023-03-26T02:22:37;99245.00;;;7.62;90.07
72570;BME280;60594;50.204;8.844;2023-03-26T02:25:09;99239.38;;;7.56;90.22
72570;BME280;60594;50.204;8.844;2023-03-26T02:27:37;99233.13;;;7.46;90.80
72570;BME280;60594;50.204;8.844;2023-03-26T02:30:07;99236.84;;;7.54;90.65
72570;BME280;60594;50.204;8.844;2023-03-26T02:32:35;99222.91;;;7.41;91.04
72570;BME280;60594;50.204;8.844;2023-03-26T02:35:02;99222.16;;;7.50;91.06
72570;BME280;60594;50.204;8.844;2023-03-26T02:37:30;99223.63;;;7.43;91.37
72570;BME280;60594;50.204;8.844;2023-03-26T02:40:07;99213.78;;;7.34;92.24
72570;BME280;60594;50.204;8.844;2023-03-26T02:42:37;99211.22;;;7.44;91.62
72570;BME280;60594;50.204;8.844;2023-03-26T02:45:05;99214.78;;;7.54;91.29
72570;BME280;60594;50.204;8.844;2023-03-26T02:47:52;99208.25;;;7.58;91.13
72570;BME280;60594;50.204;8.844;2023-03-26T02:50:37;99201.16;;;7.58;91.18
72570;BME280;60594;50.204;8.844;2023-03-26T02:53:30;99203.34;;;7.53;91.25
72570;BME280;60594;50.204;8.844;2023-03-26T02:56:19;99207.06;;;7.51;91.51
72570;BME280;60594;50.204;8.844;2023-03-26T02:58:59;99195.34;;;7.44;91.79
72570;BME280;60594;50.204;8.844;2023-03-26T03:01:26;99193.63;;;7.43;91.93
72570;BME280;60594;50.204;8.844;2023-03-26T03:03:56;99198.09;;;7.42;91.92
72570;BME280;60594;50.204;8.844;2023-03-26T03:06:34;99183.44;;;7.38;92.34
72570;BME280;60594;50.204;8.844;2023-03-26T03:09:01;99193.44;;;7.35;92.52
72570;BME280;60594;50.204;8.844;2023-03-26T03:11:38;99183.81;;;7.34;92.78
72570;BME280;60594;50.204;8.844;2023-03-26T03:14:07;99179.25;;;7.25;93.47
72570;BME280;60594;50.204;8.844;2023-03-26T03:16:34;99186.00;;;7.29;93.25
72570;BME280;60594;50.204;8.844;2023-03-26T03:19:11;99185.41;;;7.25;93.74
72570;BME280;60594;50.204;8.844;2023-03-26T03:21:39;99184.03;;;7.10;94.37
72570;BME280;60594;50.204;8.844;2023-03-26T03:24:08;99179.16;;;7.15;94.57
72570;BME280;60594;50.204;8.844;2023-03-26T03:26:41;99170.53;;;7.13;94.59
72570;BME280;60594;50.204;8.844;2023-03-26T03:29:27;99168.56;;;7.15;94.68
72570;BME280;60594;50.204;8.844;2023-03-26T03:31:54;99163.88;;;7.19;94.88
72570;BME280;60594;50.204;8.844;2023-03-26T03:34:36;99174.09;;;7.23;94.48
72570;BME280;60594;50.204;8.844;2023-03-26T03:37:04;99165.44;;;7.21;94.65
72570;BME280;60594;50.204;8.844;2023-03-26T03:39:39;99159.63;;;7.27;94.26
72570;BME280;60594;50.204;8.844;2023-03-26T03:42:07;99153.78;;;7.13;94.75
72570;BME280;60594;50.204;8.844;2023-03-26T03:44:34;99146.88;;;7.21;94.79
72570;BME280;60594;50.204;8.844;2023-03-26T03:47:03;99151.69;;;7.27;94.67
72570;BME280;60594;50.204;8.844;2023-03-26T03:49:30;99143.59;;;7.29;94.15
72570;BME280;60594;50.204;8.844;2023-03-26T03:51:57;99139.38;;;7.26;94.54
72570;BME280;60594;50.204;8.844;2023-03-26T03:54:30;99138.03;;;7.32;94.08
72570;BME280;60594;50.204;8.844;2023-03-26T03:57:04;99136.91;;;7.34;94.06
72570;BME280;60594;50.204;8.844;2023-03-26T03:59:39;99134.88;;;7.17;94.58
72570;BME280;60594;50.204;8.844;2023-03-26T04:02:08;99135.13;;;7.35;94.13
72570;BME280;60594;50.204;8.844;2023-03-26T04:04:41;99130.84;;;7.23;94.83
72570;BME280;60594;50.204;8.844;2023-03-26T04:07:12;99124.41;;;7.36;93.76
72570;BME280;60594;50.204;8.844;2023-03-26T04:10:14;99114.78;;;7.35;93.60
72570;BME280;60594;50.204;8.844;2023-03-26T04:13:01;99114.19;;;7.32;93.99
72570;BME280;60594;50.204;8.844;2023-03-26T04:15:49;99099.69;;;7.36;94.21
72570;BME280;60594;50.204;8.844;2023-03-26T04:18:15;99101.72;;;7.23;94.60
72570;BME280;60594;50.204;8.844;2023-03-26T04:20:44;99098.34;;;7.21;94.79
72570;BME280;60594;50.204;8.844;2023-03-26T04:23:20;99095.06;;;7.28;94.58
72570;BME280;60594;50.204;8.844;2023-03-26T04:25:53;99100.88;;;7.22;94.69
72570;BME280;60594;50.204;8.844;2023-03-26T04:28:30;99098.41;;;7.30;94.96
72570;BME280;60594;50.204;8.844;2023-03-26T04:31:27;99099.56;;;7.37;94.00
72570;BME280;60594;50.204;8.844;2023-03-26T04:33:59;99090.69;;;7.18;95.42
72570;BME280;60594;50.204;8.844;2023-03-26T04:36:31;99090.38;;;7.00;96.18
72570;BME280;60594;50.204;8.844;2023-03-26T04:39:01;99094.13;;;6.97;97.05
72570;BME280;60594;50.204;8.844;2023-03-26T04:41:50;99082.59;;;6.87;97.87
72570;BME280;60594;50.204;8.844;2023-03-26T04:44:19;99081.63;;;6.99;97.82
72570;BME280;60594;50.204;8.844;2023-03-26T04:47:09;99070.34;;;7.07;98.18
72570;BME280;60594;50.204;8.844;2023-03-26T04:49:46;99069.06;;;7.22;97.23
72570;BME280;60594;50.204;8.844;2023-03-26T04:52:15;99057.66;;;7.22;97.39
72570;BME280;60594;50.204;8.844;2023-03-26T04:57:57;99037.75;;;7.07;99.16
72570;BME280;60594;50.204;8.844;2023-03-26T05:00:47;99036.06;;;7.05;98.75
72570;BME280;60594;50.204;8.844;2023-03-26T05:03:15;99041.63;;;7.23;98.23
72570;BME280;60594;50.204;8.844;2023-03-26T05:05:41;99043.47;;;7.32;97.65
72570;BME280;60594;50.204;8.844;2023-03-26T05:08:09;99037.66;;;7.38;97.01
72570;BME280;60594;50.204;8.844;2023-03-26T05:10:36;99031.63;;;7.36;97.32
72570;BME280;60594;50.204;8.844;2023-03-26T05:13:05;99024.34;;;7.49;96.70
72570;BME280;60594;50.204;8.844;2023-03-26T05:15:35;99013.91;;;7.27;97.31
72570;BME280;60594;50.204;8.844;2023-03-26T05:18:31;99002.03;;;7.01;98.93
72570;BME280;60594;50.204;8.844;2023-03-26T05:20:59;99006.53;;;7.10;98.46
72570;BME280;60594;50.204;8.844;2023-03-26T05:23:27;99003.38;;;6.95;99.53
72570;BME280;60594;50.204;8.844;2023-03-26T05:26:06;98999.50;;;6.79;100.00
72570;BME280;60594;50.204;8.844;2023-03-26T05:28:33;98997.19;;;6.85;100.00
72570;BME280;60594;50.204;8.844;2023-03-26T05:31:07;98998.22;;;6.73;100.00
72570;BME280;60594;50.204;8.844;2023-03-26T05:33:38;99004.34;;;6.74;100.00
72570;BME280;60594;50.204;8.844;2023-03-26T05:36:10;98990.53;;;6.70;100.00
72570;BME280;60594;50.204;8.844;2023-03-26T05:38:44;98978.09;;;6.71;100.00
72570;BME280;60594;50.204;8.844;2023-03-26T05:41:21;98974.50;;;6.92;100.00
72570;BME280;60594;50.204;8.844;2023-03-26T05:43:49;98970.56;;;7.07;100.00
72570;BME280;60594;50.204;8.844;2023-03-26T05:46:23;98963.00;;;7.03;99.39
72570;BME280;60594;50.204;8.844;2023-03-26T05:48:50;98953.72;;;7.18;99.94
72570;BME280;60594;50.204;8.844;2023-03-26T05:51:19;98948.97;;;7.42;98.97
72570;BME280;60594;50.204;8.844;2023-03-26T05:53:59;98940.50;;;7.58;98.16
72570;BME280;60594;50.204;8.844;2023-03-26T05:56:52;98931.03;;;7.74;97.61
72570;BME280;60594;50.204;8.844;2023-03-26T05:59:38;98937.34;;;7.83;96.40
72570;BME280;60594;50.204;8.844;2023-03-26T06:02:24;98927.03;;;7.89;96.25
72570;BME280;60594;50.204;8.844;2023-03-26T06:05:19;98927.06;;;7.99;95.82
72570;BME280;60594;50.204;8.844;2023-03-26T06:08:06;98923.69;;;8.06;94.72
72570;BME280;60594;50.204;8.844;2023-03-26T06:10:38;98923.38;;;7.71;96.22
72570;BME280;60594;50.204;8.844;2023-03-26T06:13:09;98911.66;;;7.64;97.34
72570;BME280;60594;50.204;8.844;2023-03-26T06:15:40;98922.50;;;7.52;97.16
72570;BME280;60594;50.204;8.844;2023-03-26T06:18:28;98916.84;;;7.36;98.95
72570;BME280;60594;50.204;8.844;2023-03-26T06:21:14;98914.53;;;7.52;98.22
72570;BME280;60594;50.204;8.844;2023-03-26T06:23:46;98918.72;;;7.54;97.69
72570;BME280;60594;50.204;8.844;2023-03-26T06:26:33;98906.88;;;7.68;97.12
72570;BME280;60594;50.204;8.844;2023-03-26T06:29:17;98924.56;;;7.48;96.92
72570;BME280;60594;50.204;8.844;2023-03-26T06:32:05;98917.84;;;7.04;99.71
72570;BME280;60594;50.204;8.844;2023-03-26T06:34:35;98913.44;;;7.15;100.00
72570;BME280;60594;50.204;8.844;2023-03-26T06:37:03;98914.66;;;7.11;100.00
72570;BME280;60594;50.204;8.844;2023-03-26T06:39:35;98908.47;;;7.31;100.00
72570;BME280;60594;50.204;8.844;2023-03-26T06:42:19;98892.09;;;7.56;98.73
72570;BME280;60594;50.204;8.844;2023-03-26T06:45:09;98887.91;;;7.63;98.96
72570;BME280;60594;50.204;8.844;2023-03-26T06:47:56;98891.84;;;7.78;98.09
72570;BME280;60594;50.204;8.844;2023-03-26T06:50:41;98878.44;;;7.79;98.29
72570;BME280;60594;50.204;8.844;2023-03-26T06:53:20;98870.63;;;7.78;98.53
72570;BME280;60594;50.204;8.844;2023-03-26T06:56:14;98859.31;;;7.76;98.30
72570;BME280;60594;50.204;8.844;2023-03-26T06:58:58;98862.34;;;7.62;98.61
72570;BME280;60594;50.204;8.844;2023-03-26T07:01:31;98861.53;;;7.52;99.90
72570;BME280;60594;50.204;8.844;2023-03-26T07:04:17;98865.31;;;7.59;100.00
72570;BME280;60594;50.204;8.844;2023-03-26T07:07:03;98860.09;;;7.38;100.00
72570;BME280;60594;50.204;8.844;2023-03-26T07:09:49;98851.28;;;7.28;100.00
72570;BME280;60594;50.204;8.844;2023-03-26T07:12:44;98846.97;;;7.37;100.00
72570;BME280;60594;50.204;8.844;2023-03-26T07:15:35;98851.06;;;7.50;100.00
72570;BME280;60594;50.204;8.844;2023-03-26T07:18:20;98852.59;;;7.53;100.00
72570;BME280;60594;50.204;8.844;2023-03-26T07:20:48;98849.81;;;7.54;100.00
72570;BME280;60594;50.204;8.844;2023-03-26T07:23:17;98854.00;;;7.57;100.00
72570;BME280;60594;50.204;8.844;2023-03-26T07:26:49;98842.81;;;7.44;100.00
72570;BME280;60594;50.204;8.844;2023-03-26T07:35:27;98834.66;;;7.26;100.00
72570;BME280;60594;50.204;8.844;2023-03-26T07:47:53;98808.88;;;7.19;100.00
72570;BME280;60594;50.204;8.844;2023-03-26T07:50:44;98818.34;;;7.21;100.00
72570;BME280;60594;50.204;8.844;2023-03-26T07:53:28;98795.75;;;7.17;100.00
72570;BME280;60594;50.204;8.844;2023-03-26T07:56:54;98814.31;;;7.17;100.00
72570;BME280;60594;50.204;8.844;2023-03-26T07:59:35;98800.44;;;7.04;100.00
72570;BME280;60594;50.204;8.844;2023-03-26T08:10:35;98784.00;;;7.00;100.00
72570;BME280;60594;50.204;8.844;2023-03-26T08:19:08;98775.31;;;6.89;100.00
72570;BME280;60594;50.204;8.844;2023-03-26T08:21:52;98776.44;;;6.86;100.00
72570;BME280;60594;50.204;8.844;2023-03-26T08:24:33;98781.88;;;6.94;100.00
72570;BME280;60594;50.204;8.844;2023-03-26T08:27:22;98775.06;;;7.01;100.00
72570;BME280;60594;50.204;8.844;2023-03-26T08:32:34;98773.94;;;6.94;100.00
72570;BME280;60594;50.204;8.844;2023-03-26T08:35:05;98769.75;;;6.92;100.00
72570;BME280;60594;50.204;8.844;2023-03-26T08:37:36;98767.63;;;6.86;100.00
72570;BME280;60594;50.204;8.844;2023-03-26T08:40:02;98774.50;;;6.88;100.00
72570;BME280;60594;50.204;8.844;2023-03-26T08:42:57;98777.94;;;6.79;100.00
72570;BME280;60594;50.204;8.844;2023-03-26T08:56:49;98757.09;;;6.95;100.00
72570;BME280;60594;50.204;8.844;2023-03-26T09:03:07;98757.88;;;6.86;100.00
72570;BME280;60594;50.204;8.844;2023-03-26T09:19:01;98728.09;;;6.94;100.00
72570;BME280;60594;50.204;8.844;2023-03-26T09:33:25;98723.81;;;7.12;100.00
72570;BME280;60594;50.204;8.844;2023-03-26T09:48:56;98706.78;;;6.95;100.00
72570;BME280;60594;50.204;8.844;2023-03-26T09:51:41;98706.91;;;6.94;100.00
72570;BME280;60594;50.204;8.844;2023-03-26T09:57:06;98694.22;;;6.97;100.00
72570;BME280;60594;50.204;8.844;2023-03-26T10:00:14;98699.53;;;6.97;100.00
72570;BME280;60594;50.204;8.844;2023-03-26T10:02:56;98691.16;;;6.83;100.00
72570;BME280;60594;50.204;8.844;2023-03-26T10:05:54;98688.66;;;6.91;100.00
72570;BME280;60594;50.204;8.844;2023-03-26T10:14:05;98680.44;;;6.84;100.00
72570;BME280;60594;50.204;8.844;2023-03-26T10:16:45;98667.47;;;6.91;100.00
72570;BME280;60594;50.204;8.844;2023-03-26T10:22:22;98671.25;;;6.98;100.00
72570;BME280;60594;50.204;8.844;2023-03-26T10:35:58;98662.16;;;6.91;100.00
72570;BME280;60594;50.204;8.844;2023-03-26T10:44:34;98651.97;;;6.86;100.00
72570;BME280;60594;50.204;8.844;2023-03-26T10:52:52;98639.47;;;7.07;100.00
72570;BME280;60594;50.204;8.844;2023-03-26T10:55:26;98636.81;;;7.07;100.00
72570;BME280;60594;50.204;8.844;2023-03-26T10:57:58;98633.75;;;7.31;100.00
72570;BME280;60594;50.204;8.844;2023-03-26T11:00:26;98634.09;;;7.65;100.00
72570;BME280;60594;50.204;8.844;2023-03-26T11:06:02;98639.09;;;7.77;100.00
72570;BME280;60594;50.204;8.844;2023-03-26T11:08:45;98637.19;;;7.60;100.00
72570;BME280;60594;50.204;8.844;2023-03-26T11:11:25;98637.88;;;7.53;100.00
72570;BME280;60594;50.204;8.844;2023-03-26T11:13:59;98632.88;;;7.50;100.00
72570;BME280;60594;50.204;8.844;2023-03-26T11:19:34;98625.53;;;7.80;100.00
72570;BME280;60594;50.204;8.844;2023-03-26T11:22:22;98620.78;;;7.93;100.00
72570;BME280;60594;50.204;8.844;2023-03-26T11:25:31;98614.91;;;7.90;100.00
72570;BME280;60594;50.204;8.844;2023-03-26T11:30:53;98607.69;;;7.82;100.00
72570;BME280;60594;50.204;8.844;2023-03-26T11:33:23;98612.47;;;8.06;100.00
72570;BME280;60594;50.204;8.844;2023-03-26T11:35:54;98598.47;;;8.13;100.00
72570;BME280;60594;50.204;8.844;2023-03-26T11:41:10;98597.69;;;8.40;100.00
72570;BME280;60594;50.204;8.844;2023-03-26T11:43:52;98590.28;;;8.34;100.00
72570;BME280;60594;50.204;8.844;2023-03-26T11:46:22;98605.69;;;8.30;100.00
72570;BME280;60594;50.204;8.844;2023-03-26T11:49:02;98616.19;;;8.22;100.00
72570;BME280;60594;50.204;8.844;2023-03-26T11:51:35;98616.47;;;8.10;100.00
72570;BME280;60594;50.204;8.844;2023-03-26T11:54:04;98602.03;;;8.04;100.00
72570;BME280;60594;50.204;8.844;2023-03-26T11:59:02;98609.13;;;8.04;100.00
72570;BME280;60594;50.204;8.844;2023-03-26T12:01:55;98598.63;;;8.12;100.00
72570;BME280;60594;50.204;8.844;2023-03-26T12:09:51;98585.78;;;8.44;100.00
72570;BME280;60594;50.204;8.844;2023-03-26T12:12:18;98586.78;;;8.60;100.00
72570;BME280;60594;50.204;8.844;2023-03-26T12:14:45;98563.34;;;8.73;100.00
72570;BME280;60594;50.204;8.844;2023-03-26T12:17:24;98558.94;;;8.82;100.00
72570;BME280;60594;50.204;8.844;2023-03-26T12:19:51;98557.78;;;9.02;100.00
72570;BME280;60594;50.204;8.844;2023-03-26T12:22:36;98573.72;;;9.19;100.00
72570;BME280;60594;50.204;8.844;2023-03-26T12:25:20;98565.75;;;9.19;100.00
72570;BME280;60594;50.204;8.844;2023-03-26T12:30:35;98552.16;;;9.48;100.00
72570;BME280;60594;50.204;8.844;2023-03-26T12:33:06;98552.59;;;9.94;99.94
72570;BME280;60594;50.204;8.844;2023-03-26T12:35:40;98542.81;;;10.03;97.50
72570;BME280;60594;50.204;8.844;2023-03-26T12:41:11;98550.38;;;9.82;95.45
72570;BME280;60594;50.204;8.844;2023-03-26T12:43:47;98551.06;;;9.84;95.10
72570;BME280;60594;50.204;8.844;2023-03-26T12:46:26;98545.28;;;9.96;92.78
72570;BME280;60594;50.204;8.844;2023-03-26T12:48:56;98548.75;;;9.89;94.68
72570;BME280;60594;50.204;8.844;2023-03-26T12:51:38;98551.72;;;9.86;98.90
72570;BME280;60594;50.204;8.844;2023-03-26T12:54:21;98546.06;;;9.89;95.89
72570;BME280;60594;50.204;8.844;2023-03-26T13:16:54;98516.41;;;10.99;88.19
72570;BME280;60594;50.204;8.844;2023-03-26T13:19:39;98515.59;;;10.83;92.74
72570;BME280;60594;50.204;8.844;2023-03-26T13:27:52;98495.41;;;11.04;90.18
72570;BME280;60594;50.204;8.844;2023-03-26T13:36:20;98494.00;;;11.56;87.63
72570;BME280;60594;50.204;8.844;2023-03-26T13:39:08;98486.84;;;11.65;85.67
72570;BME280;60594;50.204;8.844;2023-03-26T13:41:47;98486.06;;;11.95;84.95
72570;BME280;60594;50.204;8.844;2023-03-26T13:47:17;98472.00;;;12.09;80.41
72570;BME280;60594;50.204;8.844;2023-03-26T13:49:46;98466.41;;;11.96;80.60
72570;BME280;60594;50.204;8.844;2023-03-26T13:57:42;98454.59;;;11.82;77.11
72570;BME280;60594;50.204;8.844;2023-03-26T14:00:18;98455.97;;;12.09;76.43
72570;BME280;60594;50.204;8.844;2023-03-26T14:02:57;98454.25;;;11.85;78.22
72570;BME280;60594;50.204;8.844;2023-03-26T14:05:38;98443.06;;;11.90;80.70
72570;BME280;60594;50.204;8.844;2023-03-26T14:08:29;98441.25;;;11.82;78.57
72570;BME280;60594;50.204;8.844;2023-03-26T14:11:08;98452.66;;;11.68;80.08
72570;BME280;60594;50.204;8.844;2023-03-26T14:13:50;98460.41;;;11.23;81.49
72570;BME280;60594;50.204;8.844;2023-03-26T14:16:23;98474.78;;;10.90;84.45
72570;BME280;60594;50.204;8.844;2023-03-26T14:22:01;98482.06;;;9.90;87.55
72570;BME280;60594;50.204;8.844;2023-03-26T14:25:00;98477.00;;;9.71;88.86
72570;BME280;60594;50.204;8.844;2023-03-26T14:27:59;98461.84;;;10.05;88.40
72570;BME280;60594;50.204;8.844;2023-03-26T14:33:36;98462.78;;;10.86;85.04
72570;BME280;60594;50.204;8.844;2023-03-26T14:36:15;98452.59;;;11.14;82.93
72570;BME280;60594;50.204;8.844;2023-03-26T14:44:16;98451.38;;;11.40;76.54
72570;BME280;60594;50.204;8.844;2023-03-26T14:46:55;98444.56;;;11.38;75.37
72570;BME280;60594;50.204;8.844;2023-03-26T14:49:39;98435.50;;;11.55;73.65
72570;BME280;60594;50.204;8.844;2023-03-26T14:52:31;98430.16;;;11.63;75.35
72570;BME280;60594;50.204;8.844;2023-03-26T14:55:11;98435.31;;;11.56;74.75
72570;BME280;60594;50.204;8.844;2023-03-26T15:06:51;98415.31;;;11.52;70.43
72570;BME280;60594;50.204;8.844;2023-03-26T15:21:36;98412.03;;;11.89;67.15
72570;BME280;60594;50.204;8.844;2023-03-26T15:27:23;98418.78;;;12.30;66.22
72570;BME280;60594;50.204;8.844;2023-03-26T15:36:12;98427.72;;;11.92;66.55
72570;BME280;60594;50.204;8.844;2023-03-26T15:44:25;98449.13;;;11.76;69.10
72570;BME280;60594;50.204;8.844;2023-03-26T15:49:44;98447.50;;;11.51;68.81
72570;BME280;60594;50.204;8.844;2023-03-26T15:52:38;98469.84;;;11.50;69.61
72570;BME280;60594;50.204;8.844;2023-03-26T15:58:05;98509.72;;;10.55;73.27
72570;BME280;60594;50.204;8.844;2023-03-26T16:00:40;98514.13;;;9.81;77.46
72570;BME280;60594;50.204;8.844;2023-03-26T16:03:20;98519.34;;;8.71;88.22
72570;BME280;60594;50.204;8.844;2023-03-26T16:06:11;98541.94;;;7.49;97.49
72570;BME280;60594;50.204;8.844;2023-03-26T16:11:56;98561.41;;;6.73;100.00
72570;BME280;60594;50.204;8.844;2023-03-26T16:17:04;98555.56;;;6.60;100.00
72570;BME280;60594;50.204;8.844;2023-03-26T16:19:34;98565.59;;;6.57;100.00
72570;BME280;60594;50.204;8.844;2023-03-26T16:22:15;98549.84;;;6.55;100.00
72570;BME280;60594;50.204;8.844;2023-03-26T16:27:43;98535.75;;;6.45;100.00
72570;BME280;60594;50.204;8.844;2023-03-26T16:30:26;98517.66;;;6.50;100.00
72570;BME280;60594;50.204;8.844;2023-03-26T16:32:57;98528.81;;;6.54;100.00
72570;BME280;60594;50.204;8.844;2023-03-26T16:36:05;98520.47;;;6.58;100.00
72570;BME280;60594;50.204;8.844;2023-03-26T16:38:48;98525.31;;;6.72;100.00
72570;BME280;60594;50.204;8.844;2023-03-26T16:41:21;98537.97;;;6.97;100.00
72570;BME280;60594;50.204;8.844;2023-03-26T16:44:21;98547.44;;;7.09;100.00
72570;BME280;60594;50.204;8.844;2023-03-26T16:47:24;98567.25;;;6.96;100.00
72570;BME280;60594;50.204;8.844;2023-03-26T16:52:42;98566.97;;;6.99;100.00
72570;BME280;60594;50.204;8.844;2023-03-26T16:55:19;98572.41;;;6.97;100.00
72570;BME280;60594;50.204;8.844;2023-03-26T16:58:02;98573.81;;;6.92;100.00
72570;BME280;60594;50.204;8.844;2023-03-26T17:00:41;98572.81;;;6.93;100.00
72570;BME280;60594;50.204;8.844;2023-03-26T17:03:24;98582.59;;;6.92;100.00
72570;BME280;60594;50.204;8.844;2023-03-26T17:08:46;98582.59;;;6.83;100.00
72570;BME280;60594;50.204;8.844;2023-03-26T17:14:08;98583.84;;;6.79;100.00
72570;BME280;60594;50.204;8.844;2023-03-26T17:16:44;98587.44;;;6.87;100.00
72570;BME280;60594;50.204;8.844;2023-03-26T17:21:58;98586.91;;;7.03;100.00
72570;BME280;60594;50.204;8.844;2023-03-26T17:27:35;98593.44;;;7.18;100.00
72570;BME280;60594;50.204;8.844;2023-03-26T17:33:15;98589.41;;;7.14;100.00
72570;BME280;60594;50.204;8.844;2023-03-26T17:35:47;98593.59;;;7.07;100.00
72570;BME280;60594;50.204;8.844;2023-03-26T17:51:55;98598.75;;;7.18;100.00
72570;BME280;60594;50.204;8.844;2023-03-26T17:54:30;98608.50;;;7.18;100.00
72570;BME280;60594;50.204;8.844;2023-03-26T17:57:13;98609.19;;;7.20;100.00
72570;BME280;60594;50.204;8.844;2023-03-26T17:59:43;98608.91;;;7.23;100.00
72570;BME280;60594;50.204;8.844;2023-03-26T18:02:14;98614.09;;;7.24;100.00
72570;BME280;60594;50.204;8.844;2023-03-26T18:04:44;98615.47;;;7.19;100.00
72570;BME280;60594;50.204;8.844;2023-03-26T18:07:36;98610.72;;;7.32;100.00
72570;BME280;60594;50.204;8.844;2023-03-26T18:18:56;98621.44;;;7.30;100.00
72570;BME280;60594;50.204;8.844;2023-03-26T18:21:36;98623.56;;;7.27;100.00
72570;BME280;60594;50.204;8.844;2023-03-26T18:24:05;98619.25;;;7.26;100.00
72570;BME280;60594;50.204;8.844;2023-03-26T18:26:40;98618.13;;;7.19;100.00
72570;BME280;60594;50.204;8.844;2023-03-26T18:29:24;98618.94;;;7.19;100.00
72570;BME280;60594;50.204;8.844;2023-03-26T18:32:45;98614.63;;;7.18;100.00
72570;BME280;60594;50.204;8.844;2023-03-26T18:34:53;98622.19;;;7.13;100.00
72570;BME280;60594;50.204;8.844;2023-03-26T18:37:26;98634.56;;;7.03;100.00
72570;BME280;60594;50.204;8.844;2023-03-26T18:40:00;98632.78;;;7.03;100.00
72570;BME280;60594;50.204;8.844;2023-03-26T18:42:29;98635.69;;;7.00;100.00
72570;BME280;60594;50.204;8.844;2023-03-26T18:44:58;98624.69;;;6.95;100.00
72570;BME280;60594;50.204;8.844;2023-03-26T18:47:30;98631.50;;;6.88;100.00
72570;BME280;60594;50.204;8.844;2023-03-26T18:49:59;98627.31;;;6.86;100.00
72570;BME280;60594;50.204;8.844;2023-03-26T18:52:27;98630.13;;;6.84;100.00
72570;BME280;60594;50.204;8.844;2023-03-26T18:54:55;98626.63;;;6.84;100.00